Time;durP1;ratioP1;P1;durP2;ratioP2;P2;SDS_P1;SDS_P2;PMS_P1;PMS_P2;Temp;Humidity;BMP_temperature;BMP_pressure;BME280_temperature;BME280_humidity;BME280_pressure;Samples;Min_cycle;Max_cycle;Signal;HPM_P1;HPM_P2
2022/07/26 00:00:21;;;;;;;13.85;3.10;;;20.40;99.90;;;;;;7393429;19;20357;-89
2022/07/26 00:02:47;;;;;;;15.07;3.28;;;20.50;99.90;;;;;;7394068;19;20027;-89
2022/07/26 00:05:13;;;;;;;11.20;2.65;;;20.50;99.90;;;;;;7391257;19;20113;-89
2022/07/26 00:07:40;;;;;;;16.30;3.45;;;20.40;99.90;;;;;;7393953;19;20022;-88
2022/07/26 00:10:06;;;;;;;14.60;2.90;;;20.30;99.90;;;;;;7392486;19;20022;-89
2022/07/26 00:12:32;;;;;;;16.55;3.38;;;20.20;99.90;;;;;;7392940;19;20081;-91
2022/07/26 00:14:58;;;;;;;19.35;3.40;;;20.10;99.90;;;;;;7392388;19;20014;-88
2022/07/26 00:17:24;;;;;;;11.00;2.85;;;20.10;99.90;;;;;;7390120;19;20019;-92
2022/07/26 00:19:50;;;;;;;13.90;2.67;;;20.10;99.90;;;;;;7396151;19;20034;-88
2022/07/26 00:22:34;;;;;;;11.80;2.60;;;20.10;99.90;;;;;;7412076;19;20010;-89
2022/07/26 00:25:05;;;;;;;12.15;3.25;;;20.10;99.90;;;;;;7406404;19;20027;-89
2022/07/26 00:27:32;;;;;;;12.48;2.65;;;20.10;99.90;;;;;;7404369;19;20094;-90
2022/07/26 00:29:57;;;;;;;11.55;2.70;;;20.10;99.90;;;;;;7406901;19;20078;-89
2022/07/26 00:32:23;;;;;;;12.75;2.60;;;20.10;99.90;;;;;;7408669;19;20107;-90
2022/07/26 00:34:50;;;;;;;20.15;3.30;;;20.30;99.90;;;;;;7407721;19;20031;-92
2022/07/26 00:37:16;;;;;;;11.63;2.55;;;20.40;99.90;;;;;;7410218;19;20021;-88
2022/07/26 00:39:42;;;;;;;12.48;2.53;;;20.40;99.90;;;;;;7405150;19;20018;-89
2022/07/26 00:42:08;;;;;;;13.43;3.22;;;20.40;99.90;;;;;;7409439;19;20018;-89
2022/07/26 00:44:39;;;;;;;12.65;3.42;;;20.50;99.90;;;;;;7407403;19;20074;-88
2022/07/26 00:47:05;;;;;;;10.27;2.80;;;20.60;99.90;;;;;;7407925;19;20018;-89
2022/07/26 00:49:30;;;;;;;13.27;3.00;;;20.60;99.90;;;;;;7404913;19;20018;-88
2022/07/26 00:51:56;;;;;;;10.48;2.97;;;20.50;99.90;;;;;;7409347;19;20357;-87
2022/07/26 00:54:22;;;;;;;12.85;3.03;;;20.40;99.90;;;;;;7405554;19;20479;-89
2022/07/26 00:56:49;;;;;;;9.98;2.50;;;20.30;99.90;;;;;;7405716;19;20360;-88
2022/07/26 00:59:15;;;;;;;16.17;3.42;;;20.30;99.90;;;;;;7406222;19;20018;-89
2022/07/26 01:01:41;;;;;;;11.43;2.97;;;20.40;99.90;;;;;;7401881;19;20081;-89
2022/07/26 01:04:07;;;;;;;12.10;3.45;;;20.40;99.90;;;;;;7407028;19;20025;-87
2022/07/26 01:06:33;;;;;;;10.45;2.38;;;20.30;99.90;;;;;;7404058;19;20011;-88
2022/07/26 01:08:59;;;;;;;11.73;2.75;;;20.40;99.90;;;;;;7410399;19;20014;-89
2022/07/26 01:11:26;;;;;;;12.98;2.88;;;20.40;99.90;;;;;;7404701;19;20038;-86
2022/07/26 01:13:52;;;;;;;14.55;3.30;;;20.30;99.90;;;;;;7404052;19;20519;-85
2022/07/26 01:16:17;;;;;;;14.43;3.63;;;20.30;99.90;;;;;;7406185;19;20018;-87
2022/07/26 01:18:44;;;;;;;10.60;3.25;;;20.20;99.90;;;;;;7402965;19;20074;-87
2022/07/26 01:21:11;;;;;;;12.77;2.67;;;20.20;99.90;;;;;;7404657;19;20014;-87
2022/07/26 01:23:38;;;;;;;11.85;2.97;;;20.20;99.90;;;;;;7404854;19;20018;-88
2022/07/26 01:26:04;;;;;;;12.02;2.95;;;20.20;99.90;;;;;;7408097;19;20045;-87
2022/07/26 01:28:35;;;;;;;17.05;3.08;;;20.20;99.90;;;;;;7411406;19;20038;-88
2022/07/26 01:31:01;;;;;;;10.25;2.50;;;20.20;99.90;;;;;;7427485;19;20105;-85
2022/07/26 01:33:27;;;;;;;17.77;3.47;;;20.20;99.90;;;;;;7414075;19;20014;-90
2022/07/26 01:35:53;;;;;;;13.40;2.83;;;20.20;99.90;;;;;;7400215;19;20029;-87
2022/07/26 01:38:19;;;;;;;12.50;2.78;;;20.10;99.90;;;;;;7397211;19;20030;-89
2022/07/26 01:40:45;;;;;;;19.83;4.10;;;20.10;99.90;;;;;;7396962;19;20015;-89
2022/07/26 01:43:10;;;;;;;12.80;3.13;;;20.10;99.90;;;;;;7401744;19;20467;-88
2022/07/26 01:45:36;;;;;;;16.45;3.10;;;20.20;99.90;;;;;;7398397;19;20022;-86
2022/07/26 01:48:02;;;;;;;16.60;3.72;;;20.10;99.90;;;;;;7397510;19;20019;-87
2022/07/26 01:50:28;;;;;;;15.75;3.50;;;20.10;99.90;;;;;;7396499;19;20463;-87
2022/07/26 01:52:54;;;;;;;11.07;2.40;;;20.10;99.90;;;;;;7398231;19;20027;-87
2022/07/26 01:55:20;;;;;;;13.70;3.25;;;20.10;99.90;;;;;;7395392;19;20526;-87
2022/07/26 01:57:46;;;;;;;13.93;3.70;;;20.10;99.90;;;;;;7398475;19;20686;-87
2022/07/26 02:00:13;;;;;;;13.30;3.45;;;20.00;99.90;;;;;;7398871;19;20014;-86
2022/07/26 02:02:39;;;;;;;12.55;2.97;;;20.00;99.90;;;;;;7399650;19;20018;-88
2022/07/26 02:05:05;;;;;;;11.73;2.67;;;20.00;99.90;;;;;;7396136;19;20056;-87
2022/07/26 02:07:36;;;;;;;12.10;2.97;;;20.00;99.90;;;;;;7400364;19;20013;-88
2022/07/26 02:10:03;;;;;;;11.73;3.33;;;19.90;99.90;;;;;;7399650;19;20018;-88
2022/07/26 02:12:29;;;;;;;9.98;2.70;;;20.00;99.90;;;;;;7398777;19;20018;-88
2022/07/26 02:14:55;;;;;;;11.68;3.35;;;19.90;99.90;;;;;;7397708;19;20014;-86
2022/07/26 02:17:20;;;;;;;10.00;2.90;;;19.90;99.90;;;;;;7396728;19;20479;-86
2022/07/26 02:19:46;;;;;;;12.20;2.55;;;19.80;99.90;;;;;;7393853;19;20018;-87
2022/07/26 02:22:12;;;;;;;12.20;2.95;;;19.80;99.90;;;;;;7398769;19;20345;-88
2022/07/26 02:24:38;;;;;;;15.07;3.50;;;19.90;99.90;;;;;;7397325;19;20021;-86
2022/07/26 02:27:04;;;;;;;15.48;3.13;;;19.90;99.90;;;;;;7396479;19;20018;-87
2022/07/26 02:29:31;;;;;;;13.32;2.92;;;19.90;99.90;;;;;;7397456;19;20018;-87
2022/07/26 02:31:58;;;;;;;10.88;2.22;;;19.80;99.90;;;;;;7398815;19;20014;-88
2022/07/26 02:34:24;;;;;;;10.18;2.53;;;19.90;99.90;;;;;;7394446;19;20015;-86
2022/07/26 02:36:50;;;;;;;10.10;2.28;;;19.80;99.90;;;;;;7393028;19;20047;-85
2022/07/26 02:39:16;;;;;;;10.52;2.97;;;19.90;99.90;;;;;;7395259;19;20015;-88
2022/07/26 02:41:42;;;;;;;16.75;3.28;;;19.90;99.90;;;;;;7395933;19;20017;-87
2022/07/26 02:44:08;;;;;;;13.60;2.88;;;19.80;99.90;;;;;;7394328;19;20386;-87
2022/07/26 02:46:35;;;;;;;12.68;3.28;;;19.80;99.90;;;;;;7394415;19;20014;-85
2022/07/26 02:49:00;;;;;;;7.20;2.22;;;19.70;99.90;;;;;;7395842;19;20074;-87
2022/07/26 02:51:27;;;;;;;13.32;3.28;;;19.60;99.90;;;;;;7396165;19;20019;-86
2022/07/26 02:53:52;;;;;;;14.18;3.30;;;19.60;99.90;;;;;;7397099;19;20029;-87
2022/07/26 02:56:19;;;;;;;11.48;2.58;;;19.60;99.90;;;;;;7396074;19;20011;-86
2022/07/26 02:58:46;;;;;;;6.65;2.35;;;19.60;99.90;;;;;;7396320;19;20014;-87
2022/07/26 03:01:11;;;;;;;10.90;3.13;;;19.50;99.90;;;;;;7393678;19;20027;-87
2022/07/26 03:03:37;;;;;;;13.13;3.20;;;19.60;99.90;;;;;;7394677;19;20094;-85
2022/07/26 03:06:03;;;;;;;8.18;2.33;;;19.70;99.90;;;;;;7395337;19;20031;-87
2022/07/26 03:08:29;;;;;;;11.27;3.15;;;19.80;99.90;;;;;;7393634;19;20019;-86
2022/07/26 03:10:55;;;;;;;14.57;3.50;;;19.70;99.90;;;;;;7396912;19;20027;-92
2022/07/26 03:13:21;;;;;;;15.60;3.97;;;19.50;99.90;;;;;;7394079;19;20359;-86
2022/07/26 03:15:46;;;;;;;9.68;2.70;;;19.10;99.90;;;;;;7392354;19;20020;-89
2022/07/26 03:18:12;;;;;;;9.98;2.90;;;18.80;99.90;;;;;;7397920;19;20086;-90
2022/07/26 03:20:38;;;;;;;8.73;2.75;;;18.50;99.90;;;;;;7398815;19;20235;-88
2022/07/26 03:23:04;;;;;;;7.93;2.78;;;18.20;99.90;;;;;;7408736;19;20078;-86
2022/07/26 03:25:29;;;;;;;9.38;2.20;;;18.10;99.90;;;;;;7397564;19;20022;-87
2022/07/26 03:27:55;;;;;;;7.40;2.50;;;18.00;99.90;;;;;;7396160;19;20011;-88
2022/07/26 03:30:22;;;;;;;9.65;2.95;;;17.90;99.90;;;;;;7394864;19;20018;-86
2022/07/26 03:32:48;;;;;;;9.30;2.78;;;18.00;99.90;;;;;;7394241;19;20015;-88
2022/07/26 03:35:14;;;;;;;11.48;3.15;;;18.00;99.90;;;;;;7395264;19;20015;-88
2022/07/26 03:37:40;;;;;;;8.05;2.63;;;18.00;99.90;;;;;;7394806;19;20082;-88
2022/07/26 03:40:07;;;;;;;12.57;3.70;;;18.00;99.90;;;;;;7392123;19;20022;-89
2022/07/26 03:42:34;;;;;;;11.02;2.80;;;18.10;99.90;;;;;;7396361;19;20074;-89
2022/07/26 03:45:00;;;;;;;8.18;2.47;;;18.00;99.90;;;;;;7392873;19;20025;-88
2022/07/26 03:47:26;;;;;;;13.55;3.20;;;18.00;99.90;;;;;;7394689;19;20082;-89
2022/07/26 03:49:52;;;;;;;11.30;3.22;;;18.10;99.90;;;;;;7396235;19;20014;-90
2022/07/26 03:52:18;;;;;;;13.27;3.42;;;18.10;99.90;;;;;;7394990;19;20055;-86
2022/07/26 03:54:44;;;;;;;9.25;3.47;;;18.00;99.90;;;;;;7390234;19;20479;-90
2022/07/26 03:57:10;;;;;;;13.95;3.65;;;17.90;99.90;;;;;;7393380;19;20025;-87
2022/07/26 03:59:36;;;;;;;10.07;2.70;;;17.90;99.90;;;;;;7393781;19;20023;-91
2022/07/26 04:02:02;;;;;;;7.32;1.90;;;17.80;99.90;;;;;;7395431;19;20019;-90
2022/07/26 04:04:29;;;;;;;10.57;2.15;;;17.90;99.90;;;;;;7395888;19;20019;-90
2022/07/26 04:06:55;;;;;;;10.23;2.40;;;17.90;99.90;;;;;;7396822;19;20006;-88
2022/07/26 04:09:21;;;;;;;7.80;2.10;;;17.80;99.90;;;;;;7395664;19;20020;-91
2022/07/26 04:11:47;;;;;;;9.75;1.88;;;17.80;99.90;;;;;;7395236;19;20021;-87
2022/07/26 04:14:13;;;;;;;7.28;1.67;;;17.70;99.90;;;;;;7395962;19;20015;-90
2022/07/26 04:16:39;;;;;;;8.45;2.55;;;17.60;99.90;;;;;;7393577;19;20018;-91
2022/07/26 04:19:05;;;;;;;9.10;2.22;;;17.60;99.90;;;;;;7391670;19;20010;-91
2022/07/26 04:21:31;;;;;;;8.95;1.95;;;17.60;99.90;;;;;;7392314;19;20018;-91
2022/07/26 04:23:57;;;;;;;4.93;1.40;;;17.50;99.90;;;;;;7395942;19;20026;-88
2022/07/26 04:26:23;;;;;;;7.18;1.77;;;17.60;99.90;;;;;;7393846;19;20021;-89
2022/07/26 04:28:49;;;;;;;6.82;1.70;;;17.60;99.90;;;;;;7391669;19;20020;-90
2022/07/26 04:31:15;;;;;;;7.70;1.60;;;17.70;99.90;;;;;;7392792;19;20046;-89
2022/07/26 04:33:41;;;;;;;8.43;1.58;;;17.70;99.90;;;;;;7395614;19;20010;-88
2022/07/26 04:36:07;;;;;;;8.25;1.42;;;17.60;99.90;;;;;;7392515;19;20661;-90
2022/07/26 04:38:33;;;;;;;9.15;1.50;;;17.60;99.90;;;;;;7392978;19;20018;-90
2022/07/26 04:40:59;;;;;;;8.10;1.40;;;17.50;99.90;;;;;;7390073;19;20428;-89
2022/07/26 04:43:25;;;;;;;5.68;1.45;;;17.40;99.90;;;;;;7393717;19;20024;-88
2022/07/26 04:45:51;;;;;;;6.38;1.33;;;17.30;99.90;;;;;;7392486;19;20014;-88
2022/07/26 04:48:17;;;;;;;6.50;1.23;;;17.30;99.90;;;;;;7393769;19;20074;-88
2022/07/26 04:50:43;;;;;;;8.40;1.52;;;17.30;99.90;;;;;;7392195;19;20516;-87
2022/07/26 04:53:12;;;;;;;6.38;1.13;;;17.40;99.90;;;;;;7394290;19;20014;-90
2022/07/26 04:55:39;;;;;;;8.75;1.08;;;17.40;99.90;;;;;;7391018;19;20086;-88
2022/07/26 04:58:05;;;;;;;7.45;1.35;;;17.30;99.90;;;;;;7393381;19;20022;-91
2022/07/26 05:00:32;;;;;;;6.30;1.15;;;17.30;99.90;;;;;;7393842;19;20019;-88
2022/07/26 05:02:59;;;;;;;6.65;1.30;;;17.30;99.90;;;;;;7392375;19;20014;-88
2022/07/26 05:05:28;;;;;;;7.82;1.33;;;17.30;99.90;;;;;;7392470;19;20070;-89
2022/07/26 05:07:55;;;;;;;7.68;1.33;;;17.40;99.90;;;;;;7400188;19;20015;-88
2022/07/26 05:10:29;;;;;;;7.25;1.17;;;17.40;99.90;;;;;;7406794;19;20075;-85
2022/07/26 05:12:55;;;;;;;8.73;1.23;;;17.40;99.90;;;;;;7409572;19;20010;-88
2022/07/26 05:15:20;;;;;;;9.20;1.40;;;17.50;99.90;;;;;;7402331;19;20022;-89
2022/07/26 05:17:46;;;;;;;8.10;1.50;;;17.60;99.90;;;;;;7395997;19;20085;-88
2022/07/26 05:20:15;;;;;;;6.07;1.10;;;17.60;99.90;;;;;;7397350;19;20022;-88
2022/07/26 05:22:41;;;;;;;4.25;1.30;;;17.70;99.90;;;;;;7397597;19;20495;-87
2022/07/26 05:25:07;;;;;;;5.80;1.17;;;17.70;99.90;;;;;;7399866;19;20014;-91
2022/07/26 05:27:34;;;;;;;7.45;1.15;;;17.70;99.90;;;;;;7394621;19;20011;-88
2022/07/26 05:30:00;;;;;;;6.13;1.27;;;17.70;99.90;;;;;;7399525;19;20022;-88
2022/07/26 05:32:29;;;;;;;4.15;0.98;;;17.60;99.90;;;;;;7396312;19;20018;-88
2022/07/26 05:34:54;;;;;;;6.60;0.80;;;17.50;99.90;;;;;;7399470;19;20014;-91
2022/07/26 05:37:20;;;;;;;6.15;1.20;;;17.40;99.90;;;;;;7395866;19;20022;-89
2022/07/26 05:39:46;;;;;;;5.22;1.23;;;17.30;99.90;;;;;;7395527;19;20380;-88
2022/07/26 05:42:12;;;;;;;7.22;1.17;;;17.20;99.90;;;;;;7398559;19;20014;-88
2022/07/26 05:44:38;;;;;;;6.38;0.90;;;17.10;99.90;;;;;;7397537;19;20505;-90
2022/07/26 05:47:03;;;;;;;6.00;1.15;;;17.10;99.90;;;;;;7400760;19;20015;-87
2022/07/26 05:49:29;;;;;;;5.32;1.13;;;17.10;99.90;;;;;;7401027;19;20070;-90
2022/07/26 05:51:55;;;;;;;6.55;0.90;;;17.10;99.90;;;;;;7398837;19;20413;-89
2022/07/26 05:54:21;;;;;;;7.90;1.17;;;17.10;99.90;;;;;;7397271;19;20014;-92
2022/07/26 05:56:47;;;;;;;5.28;0.80;;;17.10;99.90;;;;;;7397173;19;20010;-89
2022/07/26 05:59:13;;;;;;;6.32;0.82;;;17.10;99.90;;;;;;7399058;19;20022;-91
2022/07/26 06:01:39;;;;;;;6.10;0.90;;;17.20;99.90;;;;;;7399710;19;20018;-91
2022/07/26 06:04:05;;;;;;;3.50;0.93;;;17.20;99.90;;;;;;7399790;19;20035;-91
2022/07/26 06:06:31;;;;;;;5.88;0.82;;;17.20;99.90;;;;;;7392050;19;20527;-87
2022/07/26 06:08:57;;;;;;;5.43;0.80;;;17.30;99.90;;;;;;7397929;19;20014;-92
2022/07/26 06:11:23;;;;;;;5.30;0.90;;;17.30;99.90;;;;;;7396762;19;20023;-88
2022/07/26 06:13:49;;;;;;;5.25;0.90;;;17.30;99.90;;;;;;7399168;19;20011;-89
2022/07/26 06:16:15;;;;;;;5.05;0.80;;;17.30;99.90;;;;;;7393679;19;20017;-88
2022/07/26 06:18:40;;;;;;;3.63;0.88;;;17.40;99.90;;;;;;7396269;19;20018;-87
2022/07/26 06:21:07;;;;;;;2.83;0.50;;;17.10;99.90;;;;;;7400201;19;20014;-88
2022/07/26 06:23:33;;;;;;;3.63;0.80;;;16.90;99.90;;;;;;7397935;19;20838;-90
2022/07/26 06:25:58;;;;;;;3.30;1.00;;;16.80;99.90;;;;;;7396603;19;20018;-90
2022/07/26 06:28:24;;;;;;;3.90;0.77;;;16.70;99.90;;;;;;7397038;19;20063;-90
2022/07/26 06:30:50;;;;;;;4.78;1.10;;;16.60;99.90;;;;;;7394822;19;20023;-89
2022/07/26 06:33:16;;;;;;;5.57;0.85;;;16.40;99.90;;;;;;7401435;19;20022;-90
2022/07/26 06:35:42;;;;;;;6.18;1.25;;;16.40;99.90;;;;;;7396620;19;20048;-90
2022/07/26 06:38:08;;;;;;;4.90;0.98;;;16.40;99.90;;;;;;7398792;19;20011;-91
2022/07/26 06:40:34;;;;;;;5.65;1.15;;;16.40;99.90;;;;;;7397598;19;20035;-89
2022/07/26 06:43:00;;;;;;;11.23;1.38;;;16.50;99.90;;;;;;7395417;19;20014;-89
2022/07/26 06:45:27;;;;;;;4.60;1.00;;;16.50;99.90;;;;;;7399470;19;20019;-92
2022/07/26 06:47:53;;;;;;;5.95;0.90;;;16.60;99.90;;;;;;7398590;19;20045;-90
2022/07/26 06:50:18;;;;;;;4.72;1.17;;;16.70;99.90;;;;;;7398059;19;20033;-88
2022/07/26 06:52:44;;;;;;;5.88;1.27;;;16.80;99.90;;;;;;7413465;19;20011;-88
2022/07/26 06:55:11;;;;;;;5.43;1.00;;;16.90;99.90;;;;;;7393604;19;20015;-90
2022/07/26 06:57:37;;;;;;;6.70;1.27;;;17.00;99.90;;;;;;7396648;19;20025;-89
2022/07/26 07:00:06;;;;;;;6.15;1.45;;;17.10;99.90;;;;;;7394083;19;20107;-88
2022/07/26 07:02:33;;;;;;;8.60;1.35;;;17.10;99.90;;;;;;7393645;19;20018;-88
2022/07/26 07:04:59;;;;;;;8.15;1.20;;;17.00;99.90;;;;;;7395962;19;20434;-90
2022/07/26 07:07:24;;;;;;;5.60;1.10;;;17.00;99.90;;;;;;7399062;19;20535;-89
2022/07/26 07:09:50;;;;;;;8.73;1.20;;;16.90;99.90;;;;;;7399020;19;20019;-88
2022/07/26 07:12:16;;;;;;;7.60;1.10;;;16.90;99.90;;;;;;7398248;19;20347;-90
2022/07/26 07:14:42;;;;;;;10.23;1.33;;;16.90;99.90;;;;;;7397234;19;20014;-88
2022/07/26 07:17:08;;;;;;;8.50;1.40;;;17.10;99.90;;;;;;7394227;19;20015;-86
2022/07/26 07:19:35;;;;;;;8.70;1.10;;;17.20;99.90;;;;;;7395589;19;20074;-89
2022/07/26 07:22:03;;;;;;;10.35;1.38;;;17.30;99.90;;;;;;7397293;19;20022;-89
2022/07/26 07:24:29;;;;;;;6.15;0.90;;;17.60;99.90;;;;;;7391761;19;20067;-88
2022/07/26 07:26:55;;;;;;;5.20;0.93;;;17.80;99.90;;;;;;7400124;19;20506;-89
2022/07/26 07:29:21;;;;;;;3.97;0.70;;;18.00;99.90;;;;;;7394135;19;20027;-88
2022/07/26 07:31:47;;;;;;;8.25;1.20;;;18.40;99.90;;;;;;7395262;19;20006;-88
2022/07/26 07:34:17;;;;;;;8.25;1.23;;;19.00;99.90;;;;;;7394916;19;20011;-88
2022/07/26 07:36:43;;;;;;;4.72;0.90;;;20.20;99.90;;;;;;7394642;19;20015;-87
2022/07/26 07:39:09;;;;;;;5.53;0.93;;;20.30;99.90;;;;;;7394643;19;20051;-87
2022/07/26 07:41:37;;;;;;;5.20;0.70;;;20.20;99.90;;;;;;7394987;19;20022;-88
2022/07/26 07:44:04;;;;;;;5.65;1.00;;;20.10;99.90;;;;;;7397996;19;20018;-89
2022/07/26 07:46:30;;;;;;;7.60;1.20;;;19.80;99.90;;;;;;7397755;19;20021;-89
2022/07/26 07:48:58;;;;;;;6.00;1.00;;;19.50;99.90;;;;;;7392494;19;20019;-87
2022/07/26 07:51:25;;;;;;;11.75;1.10;;;19.40;99.90;;;;;;7395257;19;20014;-87
2022/07/26 07:53:52;;;;;;;4.53;0.80;;;19.30;99.90;;;;;;7397443;19;20010;-89
2022/07/26 07:56:17;;;;;;;6.20;0.95;;;19.40;99.90;;;;;;7395494;19;20019;-87
2022/07/26 07:58:43;;;;;;;6.57;0.75;;;19.70;99.90;;;;;;7389470;19;20018;-86
2022/07/26 08:01:12;;;;;;;7.20;0.90;;;21.00;99.90;;;;;;7392722;19;20018;-88
2022/07/26 08:03:39;;;;;;;10.07;1.40;;;22.30;99.90;;;;;;7393725;19;20018;-86
2022/07/26 08:06:07;;;;;;;7.85;1.05;;;22.80;99.90;;;;;;7391446;19;20058;-86
2022/07/26 08:08:34;;;;;;;4.85;0.85;;;23.60;99.90;;;;;;7393421;19;20357;-86
2022/07/26 08:11:01;;;;;;;6.80;1.02;;;24.10;99.90;;;;;;7384104;19;20033;-88
2022/07/26 08:13:27;;;;;;;8.30;1.13;;;23.20;99.90;;;;;;7394440;19;20011;-88
2022/07/26 08:15:54;;;;;;;6.00;1.30;;;22.30;99.90;;;;;;7383666;19;20019;-88
2022/07/26 08:18:22;;;;;;;7.30;1.20;;;21.50;99.90;;;;;;7390249;19;20014;-89
2022/07/26 08:20:49;;;;;;;7.13;1.00;;;20.80;99.90;;;;;;7393648;19;20439;-87
2022/07/26 08:23:15;;;;;;;7.65;1.50;;;19.80;99.90;;;;;;7393261;19;20365;-89
2022/07/26 08:25:43;;;;;;;12.52;1.50;;;19.40;99.90;;;;;;7392369;19;20010;-87
2022/07/26 08:28:09;;;;;;;9.52;1.52;;;19.20;99.90;;;;;;7394019;19;20022;-87
2022/07/26 08:30:37;;;;;;;9.52;1.70;;;19.00;99.90;;;;;;7397395;19;20007;-87
2022/07/26 08:33:06;;;;;;;12.32;1.90;;;19.00;99.90;;;;;;7393888;19;20063;-85
2022/07/26 08:35:32;;;;;;;6.80;1.33;;;18.90;99.90;;;;;;7395794;19;20020;-87
2022/07/26 08:37:58;;;;;;;8.88;1.70;;;19.00;99.90;;;;;;7391356;19;20015;-88
2022/07/26 08:40:23;;;;;;;7.68;1.50;;;19.10;99.90;;;;;;7390667;19;20086;-86
2022/07/26 08:42:55;;;;;;;8.88;1.40;;;19.30;99.90;;;;;;7400069;19;20015;-89
2022/07/26 08:45:29;;;;;;;7.30;1.27;;;19.40;99.90;;;;;;7398853;19;20018;-88
2022/07/26 08:47:56;;;;;;;10.32;1.38;;;19.30;99.90;;;;;;7404256;19;20022;-90
2022/07/26 08:50:23;;;;;;;6.47;1.10;;;19.20;99.90;;;;;;7404232;19;20018;-88
2022/07/26 08:52:50;;;;;;;6.28;1.30;;;19.10;99.90;;;;;;7398808;19;20025;-88
2022/07/26 08:55:18;;;;;;;9.27;1.27;;;19.30;99.90;;;;;;7399674;19;20026;-88
2022/07/26 08:57:45;;;;;;;8.93;1.70;;;19.40;99.90;;;;;;7400081;19;20539;-87
2022/07/26 09:00:20;;;;;;;10.68;1.45;;;19.40;99.90;;;;;;7396802;19;20024;-86
2022/07/26 09:02:47;;;;;;;7.07;1.20;;;19.40;99.90;;;;;;7402595;19;20015;-87
2022/07/26 09:05:14;;;;;;;7.15;1.20;;;19.30;99.90;;;;;;7399750;19;20010;-86
2022/07/26 09:07:40;;;;;;;6.85;1.13;;;19.20;99.90;;;;;;7400683;19;20046;-90
2022/07/26 09:10:09;;;;;;;6.65;1.02;;;19.20;99.90;;;;;;7399133;19;20014;-87
2022/07/26 09:12:35;;;;;;;6.97;1.35;;;19.10;99.90;;;;;;7397890;19;20007;-87
2022/07/26 09:15:04;;;;;;;7.35;1.17;;;19.10;99.90;;;;;;7399210;19;20014;-86
2022/07/26 09:17:41;;;;;;;8.30;1.20;;;19.20;99.90;;;;;;7400995;19;20018;-86
2022/07/26 09:20:12;;;;;;;9.40;1.30;;;19.50;99.90;;;;;;7396460;19;20077;-87
2022/07/26 09:23:08;;;;;;;7.05;1.30;;;19.80;99.90;;;;;;7395102;19;20044;-90
2022/07/26 09:25:44;;;;;;;6.07;1.35;;;20.10;99.90;;;;;;7399521;19;20022;-86
2022/07/26 09:28:28;;;;;;;10.15;1.38;;;20.10;99.90;;;;;;7403158;19;20011;-87
2022/07/26 09:31:02;;;;;;;10.75;1.48;;;20.00;99.90;;;;;;7403453;19;20021;-87
2022/07/26 09:33:48;;;;;;;7.25;1.20;;;19.80;99.90;;;;;;7398538;19;20024;-88
2022/07/26 09:36:15;;;;;;;6.85;1.10;;;19.60;99.90;;;;;;7398516;19;20007;-87
2022/07/26 09:38:44;;;;;;;8.32;1.42;;;19.40;99.90;;;;;;7400825;19;20014;-87
2022/07/26 09:41:25;;;;;;;7.88;1.17;;;19.40;99.90;;;;;;7399186;19;20511;-86
2022/07/26 09:43:51;;;;;;;9.88;1.83;;;19.40;99.90;;;;;;7398145;19;20010;-86
2022/07/26 09:46:17;;;;;;;9.23;1.60;;;19.50;99.90;;;;;;7397646;19;20015;-86
2022/07/26 09:48:43;;;;;;;8.13;1.20;;;19.50;99.90;;;;;;7399186;19;20025;-88
2022/07/26 09:51:09;;;;;;;9.63;1.63;;;19.50;99.90;;;;;;7397218;19;20349;-86
2022/07/26 09:53:46;;;;;;;10.32;1.77;;;19.30;99.90;;;;;;7400489;19;20609;-86
2022/07/26 09:56:13;;;;;;;9.73;1.70;;;19.20;99.90;;;;;;7399385;19;20022;-87
2022/07/26 09:58:39;;;;;;;8.15;1.20;;;19.00;99.90;;;;;;7399112;19;20070;-86
2022/07/26 10:01:06;;;;;;;13.60;2.08;;;18.90;99.90;;;;;;7397824;19;20014;-84
2022/07/26 10:03:33;;;;;;;12.73;3.83;;;18.80;99.90;;;;;;7401855;19;20115;-86
2022/07/26 10:06:02;;;;;;;10.70;2.05;;;18.90;99.90;;;;;;7395510;19;20014;-85
2022/07/26 10:08:29;;;;;;;11.80;1.95;;;19.00;99.90;;;;;;7397219;19;20010;-85
2022/07/26 10:11:04;;;;;;;11.20;2.30;;;19.00;99.90;;;;;;7397802;19;20014;-87
2022/07/26 10:13:30;;;;;;;10.93;2.10;;;19.20;99.90;;;;;;7395727;19;20370;-83
2022/07/26 10:15:57;;;;;;;14.95;2.70;;;19.10;99.90;;;;;;7404278;19;20031;-87
2022/07/26 10:18:43;;;;;;;17.48;2.88;;;19.00;99.90;;;;;;7399582;19;20015;-85
2022/07/26 10:21:19;;;;;;;13.82;2.67;;;19.00;99.90;;;;;;7398165;19;20006;-86
2022/07/26 10:23:50;;;;;;;16.05;2.88;;;18.90;99.90;;;;;;7399272;19;20392;-87
2022/07/26 10:26:36;;;;;;;15.20;3.00;;;18.90;99.90;;;;;;7400046;19;20141;-86
2022/07/26 10:29:20;;;;;;;11.90;2.50;;;19.00;99.90;;;;;;7399096;19;20022;-88
2022/07/26 10:31:48;;;;;;;14.85;2.72;;;19.00;99.90;;;;;;7397633;19;20014;-86
2022/07/26 10:34:37;;;;;;;13.75;2.33;;;19.00;99.90;;;;;;7396393;19;20082;-87
2022/07/26 11:13:37;;;;;;;10.80;2.05;;;19.20;99.90;;;;;;7390951;19;20620;-85
2022/07/26 11:16:07;;;;;;;9.43;1.92;;;19.30;99.90;;;;;;7392536;19;20018;-86
2022/07/26 11:18:34;;;;;;;13.90;2.30;;;19.30;99.90;;;;;;7397099;19;20007;-86
2022/07/26 11:21:15;;;;;;;14.80;2.17;;;19.30;99.90;;;;;;7398642;19;20024;-85
2022/07/26 11:23:46;;;;;;;12.98;2.38;;;19.50;99.90;;;;;;7396570;19;20031;-86
2022/07/26 11:26:17;;;;;;;11.40;1.83;;;19.60;99.90;;;;;;7392570;19;20009;-86
2022/07/26 11:28:46;;;;;;;11.15;2.03;;;19.70;99.90;;;;;;7394910;19;20015;-86
2022/07/26 11:31:12;;;;;;;11.15;1.90;;;19.80;99.90;;;;;;7394607;19;20015;-86
2022/07/26 11:33:40;;;;;;;7.57;1.67;;;20.00;99.90;;;;;;7394585;19;20010;-86
2022/07/26 11:36:07;;;;;;;8.23;1.40;;;20.20;99.90;;;;;;7395686;19;20517;-87
2022/07/26 11:38:53;;;;;;;8.18;1.85;;;20.40;99.90;;;;;;7394137;19;20377;-86
2022/07/26 11:41:25;;;;;;;10.07;1.77;;;20.40;99.90;;;;;;7397908;19;20014;-86
2022/07/26 11:43:52;;;;;;;9.47;2.03;;;20.50;99.90;;;;;;7393054;19;20014;-87
2022/07/26 11:46:19;;;;;;;9.82;2.05;;;20.40;99.90;;;;;;7392663;19;20027;-87
2022/07/26 11:48:50;;;;;;;8.05;1.73;;;20.50;99.90;;;;;;7394652;19;20030;-87
2022/07/26 11:51:18;;;;;;;11.15;1.73;;;20.40;99.90;;;;;;7393601;19;20014;-85
2022/07/26 11:53:45;;;;;;;11.20;1.55;;;20.40;99.90;;;;;;7404879;19;20022;-87
2022/07/26 11:56:22;;;;;;;8.95;1.70;;;20.30;99.90;;;;;;7392162;19;20015;-86
2022/07/26 11:58:53;;;;;;;8.65;1.70;;;20.20;99.90;;;;;;7397295;19;20010;-86
2022/07/26 12:01:21;;;;;;;7.88;1.20;;;20.20;99.90;;;;;;7392114;19;20146;-86
2022/07/26 12:03:51;;;;;;;7.15;1.58;;;20.00;99.90;;;;;;7396574;19;20018;-86
2022/07/26 12:06:19;;;;;;;4.70;1.17;;;19.90;99.90;;;;;;7393799;19;20010;-86
2022/07/26 12:08:50;;;;;;;6.80;1.40;;;19.90;99.90;;;;;;7394108;19;20019;-85
2022/07/26 12:11:17;;;;;;;6.28;1.25;;;20.00;99.90;;;;;;7396057;19;20074;-87
2022/07/26 12:14:00;;;;;;;8.68;1.58;;;20.10;99.90;;;;;;7393506;19;20038;-86
2022/07/26 12:16:46;;;;;;;7.65;1.88;;;19.90;99.80;;;;;;7390854;19;20081;-86
2022/07/26 12:19:18;;;;;;;6.72;1.30;;;19.90;99.60;;;;;;7394663;19;20503;-85
2022/07/26 12:21:53;;;;;;;8.35;1.45;;;20.00;99.90;;;;;;7390455;19;20014;-88
2022/07/26 12:24:40;;;;;;;9.20;1.70;;;20.30;99.90;;;;;;7390945;19;20015;-86
2022/07/26 12:27:19;;;;;;;6.55;1.20;;;20.50;99.30;;;;;;7393624;19;20015;-86
2022/07/26 12:29:50;;;;;;;5.40;1.15;;;20.30;98.40;;;;;;7392918;19;20014;-86
2022/07/26 12:32:36;;;;;;;4.07;0.95;;;20.20;98.90;;;;;;7396466;19;20019;-87
2022/07/26 12:35:08;;;;;;;5.25;0.80;;;20.00;98.20;;;;;;7390956;19;20384;-86
2022/07/26 12:37:38;;;;;;;5.53;1.10;;;20.00;99.20;;;;;;7397815;19;20042;-86
2022/07/26 12:40:12;;;;;;;5.03;0.90;;;20.00;98.40;;;;;;7391081;19;20011;-87
2022/07/26 12:43:00;;;;;;;4.88;0.98;;;20.00;98.20;;;;;;7392980;19;20101;-86
2022/07/26 12:45:28;;;;;;;5.72;1.02;;;20.10;98.40;;;;;;7393763;19;20022;-86
2022/07/26 12:47:55;;;;;;;5.90;0.90;;;20.30;98.20;;;;;;7392642;19;20494;-87
2022/07/26 12:50:24;;;;;;;4.60;1.08;;;20.30;97.80;;;;;;7391715;19;20007;-87
2022/07/26 12:52:50;;;;;;;4.60;1.00;;;20.30;98.10;;;;;;7391111;19;20378;-86
2022/07/26 12:55:19;;;;;;;7.03;1.00;;;20.30;98.70;;;;;;7392242;19;20044;-86
2022/07/26 12:57:47;;;;;;;6.53;1.20;;;20.40;98.50;;;;;;7392769;19;20092;-86
2022/07/26 13:00:15;;;;;;;4.72;0.70;;;20.60;98.70;;;;;;7390661;19;20010;-86
2022/07/26 13:02:42;;;;;;;6.72;1.23;;;20.50;98.10;;;;;;7393710;19;20019;-87
2022/07/26 13:05:09;;;;;;;6.25;1.13;;;20.40;98.00;;;;;;7393014;19;20011;-86
2022/07/26 13:07:36;;;;;;;6.05;1.30;;;20.30;98.70;;;;;;7393285;19;20007;-86
2022/07/26 13:10:03;;;;;;;5.80;1.20;;;20.20;98.80;;;;;;7391998;19;20014;-85
2022/07/26 13:12:29;;;;;;;4.68;1.15;;;20.20;99.10;;;;;;7391537;19;20014;-86
2022/07/26 13:14:55;;;;;;;5.95;1.17;;;20.10;98.70;;;;;;7392994;19;20587;-85
2022/07/26 13:17:22;;;;;;;7.53;1.20;;;19.90;99.30;;;;;;7389949;19;20518;-86
2022/07/26 13:19:48;;;;;;;6.30;1.05;;;19.80;99.80;;;;;;7391830;19;20070;-86
2022/07/26 13:22:13;;;;;;;7.53;1.30;;;19.80;99.90;;;;;;7391442;19;20014;-86